Time;durP1;ratioP1;P1;durP2;ratioP2;P2;SDS_P1;SDS_P2;PMS_P1;PMS_P2;Temp;Humidity;BMP_temperature;BMP_pressure;BME280_temperature;BME280_humidity;BME280_pressure;Samples;Min_cycle;Max_cycle;Signal;HPM_P1;HPM_P2
2023/01/08 00:00:29;;;;;;;;;;;17.20;90.50;;;;;;5095415;28;19955;-51
2023/01/08 00:02:55;;;;;;;;;;;17.20;90.50;;;;;;5077570;28;19908;-53
2023/01/08 00:05:20;;;;;;;;;;;17.20;90.50;;;;;;5095646;28;19911;-52
2023/01/08 00:07:46;;;;;;;;;;;17.10;90.60;;;;;;5095559;28;19904;-49
2023/01/08 00:10:11;;;;;;;;;;;17.10;90.60;;;;;;5095317;28;19904;-53
2023/01/08 00:12:37;;;;;;;;;;;17.10;90.60;;;;;;5077302;28;20045;-50
2023/01/08 00:15:02;;;;;;;;;;;17.10;90.60;;;;;;5095425;28;19911;-49
2023/01/08 00:17:28;;;;;;;;;;;17.00;90.80;;;;;;5095299;28;19998;-50
2023/01/08 00:19:53;;;;;;;;;;;17.10;90.60;;;;;;5094978;28;19965;-51
2023/01/08 00:22:18;;;;;;;;;;;17.00;90.60;;;;;;5095257;28;20422;-51
2023/01/08 00:24:44;;;;;;;;;;;17.00;90.70;;;;;;5076963;28;19953;-50
2023/01/08 00:27:10;;;;;;;;;;;17.00;90.70;;;;;;5095150;28;19904;-51
2023/01/08 00:29:36;;;;;;;;;;;16.90;90.80;;;;;;5095391;28;20267;-50
2023/01/08 00:32:02;;;;;;;;;;;16.90;90.80;;;;;;5094811;28;19930;-50
2023/01/08 00:34:27;;;;;;;;;;;16.90;90.80;;;;;;5094958;28;19908;-51
2023/01/08 00:36:53;;;;;;;;;;;16.90;90.80;;;;;;5095165;28;19965;-49
2023/01/08 00:39:18;;;;;;;;;;;16.90;90.80;;;;;;5094580;28;20343;-48
2023/01/08 00:41:44;;;;;;;;;;;16.80;90.90;;;;;;5095247;28;19915;-51
2023/01/08 00:44:10;;;;;;;;;;;16.80;90.90;;;;;;5094648;28;19904;-49
2023/01/08 00:46:35;;;;;;;;;;;16.80;90.90;;;;;;5094588;28;19911;-50
2023/01/08 00:49:01;;;;;;;;;;;16.80;90.90;;;;;;5094545;28;19904;-49
2023/01/08 00:51:26;;;;;;;;;;;16.80;90.90;;;;;;5095056;28;19969;-53
2023/01/08 00:53:52;;;;;;;;;;;16.80;90.90;;;;;;5094820;28;19904;-50
2023/01/08 00:56:17;;;;;;;;;;;16.80;90.90;;;;;;5094398;28;19904;-53
2023/01/08 00:58:42;;;;;;;;;;;16.80;90.90;;;;;;5094419;28;19911;-51
2023/01/08 01:01:09;;;;;;;;;;;16.80;90.90;;;;;;5094357;28;20431;-50
2023/01/08 01:03:35;;;;;;;;;;;16.80;90.90;;;;;;5094343;28;20358;-48
2023/01/08 01:06:01;;;;;;;;;;;16.80;90.90;;;;;;5094621;28;19950;-52
2023/01/08 01:08:26;;;;;;;;;;;16.80;91.00;;;;;;5094600;28;19912;-48
2023/01/08 01:10:53;;;;;;;;;;;16.80;91.00;;;;;;5094918;28;20331;-54
2023/01/08 01:13:18;;;;;;;;;;;16.80;91.00;;;;;;5076469;28;19957;-49
2023/01/08 01:15:43;;;;;;;;;;;16.80;91.10;;;;;;5094791;28;20323;-50
2023/01/08 01:18:10;;;;;;;;;;;16.80;91.10;;;;;;5094467;28;20005;-49
2023/01/08 01:20:35;;;;;;;;;;;16.70;91.10;;;;;;5094011;28;20011;-49
2023/01/08 01:23:02;;;;;;;;;;;16.70;91.10;;;;;;5094390;28;20005;-49
2023/01/08 01:25:28;;;;;;;;;;;16.70;91.10;;;;;;5094427;28;20326;-54
2023/01/08 01:27:53;;;;;;;;;;;16.70;91.10;;;;;;5094670;28;19965;-48
2023/01/08 01:30:19;;;;;;;;;;;16.70;91.10;;;;;;5094056;28;19965;-49
2023/01/08 01:32:44;;;;;;;;;;;16.70;91.10;;;;;;5094303;28;19995;-51
2023/01/08 01:35:10;;;;;;;;;;;16.70;91.10;;;;;;5094204;28;19920;-50
2023/01/08 01:37:35;;;;;;;;;;;16.70;91.10;;;;;;5094279;28;19904;-50
2023/01/08 01:40:01;;;;;;;;;;;16.70;91.20;;;;;;5093918;28;20298;-51
2023/01/08 01:42:38;;;;;;;;;;;16.60;91.10;;;;;;5094224;28;20007;-48
2023/01/08 01:45:19;;;;;;;;;;;16.60;91.10;;;;;;5076037;28;19904;-51
2023/01/08 01:47:48;;;;;;;;;;;16.60;91.20;;;;;;5094215;28;19947;-53
2023/01/08 01:50:18;;;;;;;;;;;16.60;91.20;;;;;;5076012;28;20344;-53
2023/01/08 01:52:49;;;;;;;;;;;16.60;91.20;;;;;;5097277;28;19998;-54
2023/01/08 01:55:16;;;;;;;;;;;16.60;91.20;;;;;;5098304;28;19911;-51
2023/01/08 01:57:47;;;;;;;;;;;16.60;91.20;;;;;;5098124;28;19973;-52
2023/01/08 02:00:12;;;;;;;;;;;16.60;91.20;;;;;;5098054;28;19908;-49
2023/01/08 02:02:38;;;;;;;;;;;16.50;91.20;;;;;;5097995;28;19954;-52
2023/01/08 02:05:04;;;;;;;;;;;16.50;91.10;;;;;;5097990;28;19908;-50
2023/01/08 02:07:32;;;;;;;;;;;16.50;91.10;;;;;;5097747;28;19946;-49
2023/01/08 02:10:02;;;;;;;;;;;16.50;91.10;;;;;;5097658;28;19904;-48
2023/01/08 02:12:48;;;;;;;;;;;16.50;91.10;;;;;;5097528;28;19912;-51
2023/01/08 02:15:20;;;;;;;;;;;16.40;91.10;;;;;;5096960;28;19915;-50
2023/01/08 02:17:52;;;;;;;;;;;16.40;91.20;;;;;;5097691;28;19904;-53
2023/01/08 02:20:17;;;;;;;;;;;16.40;91.10;;;;;;5079435;28;19955;-52
2023/01/08 02:22:50;;;;;;;;;;;16.40;91.10;;;;;;5097950;28;19912;-53
2023/01/08 02:25:29;;;;;;;;;;;16.40;91.10;;;;;;5097295;28;19904;-54
2023/01/08 02:27:55;;;;;;;;;;;16.40;91.10;;;;;;5097531;28;19904;-50
2023/01/08 02:30:21;;;;;;;;;;;16.40;91.20;;;;;;5079459;28;19927;-51
2023/01/08 02:32:47;;;;;;;;;;;16.40;91.20;;;;;;5097541;28;20404;-49
2023/01/08 02:35:12;;;;;;;;;;;16.40;91.20;;;;;;5097154;28;20007;-48
2023/01/08 02:37:39;;;;;;;;;;;16.30;91.10;;;;;;5097458;28;20004;-53
2023/01/08 02:40:17;;;;;;;;;;;16.40;91.20;;;;;;5097322;28;19961;-51
2023/01/08 02:43:02;;;;;;;;;;;16.30;91.20;;;;;;5097296;28;19961;-51
2023/01/08 02:45:27;;;;;;;;;;;16.30;91.20;;;;;;5096952;28;20346;-53
2023/01/08 02:47:56;;;;;;;;;;;16.30;91.20;;;;;;5096924;28;19908;-49
2023/01/08 02:50:30;;;;;;;;;;;16.30;91.30;;;;;;5096859;28;19911;-49
2023/01/08 02:53:01;;;;;;;;;;;16.30;91.30;;;;;;5097071;28;20007;-47
2023/01/08 02:55:28;;;;;;;;;;;16.30;91.30;;;;;;5096840;28;19910;-48
2023/01/08 02:57:54;;;;;;;;;;;16.20;91.30;;;;;;5097359;28;20010;-50
2023/01/08 03:00:19;;;;;;;;;;;16.20;91.30;;;;;;5096984;28;19955;-49
2023/01/08 03:02:46;;;;;;;;;;;16.20;91.30;;;;;;5096335;28;19919;-50
2023/01/08 03:05:15;;;;;;;;;;;16.20;91.40;;;;;;5096633;28;19950;-51
2023/01/08 03:07:41;;;;;;;;;;;16.20;91.40;;;;;;5078623;28;19961;-53
2023/01/08 03:10:07;;;;;;;;;;;16.20;91.70;;;;;;5096796;28;19908;-52
2023/01/08 03:12:44;;;;;;;;;;;16.20;91.40;;;;;;5096701;28;19904;-51
2023/01/08 03:15:12;;;;;;;;;;;16.20;91.40;;;;;;5096664;28;19911;-49
2023/01/08 03:17:40;;;;;;;;;;;16.20;91.50;;;;;;5096324;28;19912;-49
2023/01/08 03:20:06;;;;;;;;;;;16.10;91.50;;;;;;5096166;28;20342;-50
2023/01/08 03:22:34;;;;;;;;;;;16.10;91.50;;;;;;5096536;28;19915;-50
2023/01/08 03:25:01;;;;;;;;;;;16.10;91.50;;;;;;5096468;28;19911;-50
2023/01/08 03:27:28;;;;;;;;;;;16.10;91.50;;;;;;5096195;28;19908;-52
2023/01/08 03:29:55;;;;;;;;;;;16.10;91.50;;;;;;5096426;28;19908;-52
2023/01/08 03:32:22;;;;;;;;;;;16.10;91.60;;;;;;5096388;28;19908;-53
2023/01/08 03:34:49;;;;;;;;;;;16.10;91.60;;;;;;5095990;28;19905;-52
2023/01/08 03:37:17;;;;;;;;;;;16.00;91.60;;;;;;5096035;28;19904;-52
2023/01/08 03:39:45;;;;;;;;;;;16.10;91.60;;;;;;5095850;28;19908;-52
2023/01/08 03:42:12;;;;;;;;;;;16.10;91.60;;;;;;5096166;28;20187;-51
2023/01/08 03:44:37;;;;;;;;;;;16.10;91.60;;;;;;5096089;28;19911;-50
2023/01/08 03:47:04;;;;;;;;;;;16.00;91.60;;;;;;5096094;28;19923;-50
2023/01/08 03:49:29;;;;;;;;;;;16.00;91.60;;;;;;5095749;28;20250;-52
2023/01/08 03:51:55;;;;;;;;;;;16.00;91.60;;;;;;5096320;28;19926;-52
2023/01/08 03:54:28;;;;;;;;;;;16.00;91.60;;;;;;5095924;28;19930;-50
2023/01/08 03:56:53;;;;;;;;;;;16.00;91.60;;;;;;5095798;28;19908;-51
2023/01/08 03:59:19;;;;;;;;;;;16.00;91.70;;;;;;5095699;28;20407;-49
2023/01/08 04:01:44;;;;;;;;;;;16.00;91.70;;;;;;5077628;28;19908;-54
2023/01/08 04:04:10;;;;;;;;;;;16.00;91.70;;;;;;5095793;28;20220;-49
2023/01/08 04:06:35;;;;;;;;;;;16.00;91.70;;;;;;5095403;28;19904;-51
2023/01/08 04:09:01;;;;;;;;;;;16.00;91.70;;;;;;5095602;28;19904;-52
2023/01/08 04:11:27;;;;;;;;;;;16.00;91.70;;;;;;5095311;28;20266;-48
2023/01/08 04:13:52;;;;;;;;;;;15.90;91.70;;;;;;5094758;28;19904;-50
2023/01/08 04:16:18;;;;;;;;;;;15.90;91.70;;;;;;5095065;28;19911;-50
2023/01/08 04:18:43;;;;;;;;;;;15.90;91.70;;;;;;5095071;28;19915;-48
2023/01/08 04:21:09;;;;;;;;;;;15.90;91.80;;;;;;5077107;28;19999;-49
2023/01/08 04:23:34;;;;;;;;;;;15.90;91.80;;;;;;5092297;28;20367;-50
2023/01/08 04:26:02;;;;;;;;;;;15.90;91.80;;;;;;5096761;28;19918;-50
2023/01/08 04:28:29;;;;;;;;;;;15.90;91.80;;;;;;5089702;28;19995;-54
2023/01/08 04:30:54;;;;;;;;;;;15.90;91.80;;;;;;5093315;28;19908;-51
2023/01/08 04:33:20;;;;;;;;;;;15.90;91.80;;;;;;5093613;28;20007;-49
2023/01/08 04:35:45;;;;;;;;;;;15.80;91.80;;;;;;5094371;28;19920;-49
2023/01/08 04:38:11;;;;;;;;;;;15.80;91.80;;;;;;5093335;28;20351;-50
2023/01/08 04:40:36;;;;;;;;;;;15.80;91.80;;;;;;5088118;28;19923;-51
2023/01/08 04:43:02;;;;;;;;;;;15.80;91.90;;;;;;5093181;28;20272;-51
2023/01/08 04:45:27;;;;;;;;;;;15.80;91.90;;;;;;5093330;28;19908;-49
2023/01/08 04:47:56;;;;;;;;;;;15.80;91.90;;;;;;5093099;28;20006;-51
2023/01/08 04:50:22;;;;;;;;;;;15.80;91.90;;;;;;5092973;28;19915;-52
2023/01/08 04:52:47;;;;;;;;;;;15.80;91.90;;;;;;5092822;28;19916;-53
2023/01/08 04:55:13;;;;;;;;;;;15.80;92.00;;;;;;5087674;28;19969;-50
2023/01/08 04:57:38;;;;;;;;;;;15.80;92.00;;;;;;5093073;28;19908;-52
2023/01/08 05:00:04;;;;;;;;;;;15.80;92.00;;;;;;5088478;28;19939;-51
2023/01/08 05:02:30;;;;;;;;;;;15.80;92.00;;;;;;5092231;28;19919;-50
2023/01/08 05:04:55;;;;;;;;;;;15.70;92.00;;;;;;5092823;28;19908;-51
2023/01/08 05:07:21;;;;;;;;;;;15.70;92.00;;;;;;5074874;28;19919;-49
2023/01/08 05:09:46;;;;;;;;;;;15.70;92.00;;;;;;5092975;28;19908;-49
2023/01/08 05:12:12;;;;;;;;;;;15.70;92.10;;;;;;5074854;28;19908;-54
2023/01/08 05:14:37;;;;;;;;;;;15.70;92.10;;;;;;5092771;28;19946;-51
2023/01/08 05:17:03;;;;;;;;;;;15.70;92.10;;;;;;5092694;28;20575;-53
2023/01/08 05:19:28;;;;;;;;;;;15.70;92.10;;;;;;5092876;28;19912;-50
2023/01/08 05:21:54;;;;;;;;;;;15.70;92.10;;;;;;5092882;28;19994;-49
2023/01/08 05:24:19;;;;;;;;;;;15.70;92.10;;;;;;5087696;28;19919;-48
2023/01/08 05:26:44;;;;;;;;;;;15.70;92.10;;;;;;5092762;28;20359;-53
2023/01/08 05:29:10;;;;;;;;;;;15.70;92.10;;;;;;5094037;28;19912;-50
2023/01/08 05:31:35;;;;;;;;;;;15.60;92.20;;;;;;5092658;28;19908;-52
2023/01/08 05:34:01;;;;;;;;;;;15.60;92.20;;;;;;5092764;28;20369;-52
2023/01/08 05:36:26;;;;;;;;;;;15.60;92.20;;;;;;5092774;28;19920;-49
2023/01/08 05:38:52;;;;;;;;;;;15.60;92.20;;;;;;5088493;28;19909;-48
2023/01/08 05:41:18;;;;;;;;;;;15.60;92.20;;;;;;5092438;28;19912;-51
2023/01/08 05:43:43;;;;;;;;;;;15.60;92.30;;;;;;5094487;28;19912;-49
2023/01/08 05:46:09;;;;;;;;;;;15.60;92.20;;;;;;5093868;28;20266;-52
2023/01/08 05:48:34;;;;;;;;;;;15.60;92.30;;;;;;5093844;28;20316;-50
2023/01/08 05:51:01;;;;;;;;;;;15.60;92.20;;;;;;5093899;28;19909;-52
2023/01/08 05:53:26;;;;;;;;;;;15.60;92.30;;;;;;5094149;28;19911;-50
2023/01/08 05:55:56;;;;;;;;;;;15.60;92.30;;;;;;5094132;28;19904;-50
2023/01/08 05:58:22;;;;;;;;;;;15.60;92.30;;;;;;5093902;28;20272;-49
2023/01/08 06:00:47;;;;;;;;;;;15.60;92.30;;;;;;5094069;28;19915;-49
2023/01/08 06:03:13;;;;;;;;;;;15.60;92.30;;;;;;5094076;28;20395;-48
2023/01/08 06:05:38;;;;;;;;;;;15.50;92.30;;;;;;5075930;28;19904;-50
2023/01/08 06:08:04;;;;;;;;;;;15.60;92.30;;;;;;5075766;28;19904;-53
2023/01/08 06:10:29;;;;;;;;;;;15.50;92.30;;;;;;5091688;28;20255;-50
2023/01/08 06:12:55;;;;;;;;;;;15.50;92.30;;;;;;5091822;28;20003;-50
2023/01/08 06:15:20;;;;;;;;;;;15.50;92.30;;;;;;5091918;28;19904;-50
2023/01/08 06:17:46;;;;;;;;;;;15.50;92.40;;;;;;5092334;28;20254;-51
2023/01/08 06:20:11;;;;;;;;;;;15.50;92.40;;;;;;5092069;28;20258;-51
2023/01/08 06:22:37;;;;;;;;;;;15.50;92.40;;;;;;5091549;28;19908;-54
2023/01/08 06:25:02;;;;;;;;;;;15.50;92.40;;;;;;5093039;28;20257;-52
2023/01/08 06:27:28;;;;;;;;;;;15.50;92.50;;;;;;5093453;28;19911;-52
2023/01/08 06:29:53;;;;;;;;;;;15.50;92.50;;;;;;5093424;28;20323;-50
2023/01/08 06:32:19;;;;;;;;;;;15.50;92.50;;;;;;5075585;28;19908;-50
2023/01/08 06:34:44;;;;;;;;;;;15.40;92.40;;;;;;5093516;28;19911;-52
2023/01/08 06:37:10;;;;;;;;;;;15.50;92.50;;;;;;5093835;28;19986;-51
2023/01/08 06:39:35;;;;;;;;;;;15.40;92.50;;;;;;5097245;28;19908;-52
2023/01/08 06:42:00;;;;;;;;;;;15.40;92.50;;;;;;5097296;28;19914;-50
2023/01/08 06:44:26;;;;;;;;;;;15.40;92.50;;;;;;5096962;28;19905;-51
2023/01/08 06:46:51;;;;;;;;;;;15.40;92.50;;;;;;5097158;28;19912;-52
2023/01/08 06:49:18;;;;;;;;;;;15.40;92.50;;;;;;5096897;28;19952;-51
2023/01/08 06:51:44;;;;;;;;;;;15.40;92.60;;;;;;5097057;28;20003;-52
2023/01/08 06:54:09;;;;;;;;;;;15.40;92.50;;;;;;5096752;28;19978;-51
2023/01/08 06:56:35;;;;;;;;;;;15.40;92.60;;;;;;5096749;28;19904;-51
2023/01/08 06:59:00;;;;;;;;;;;15.40;92.60;;;;;;5096717;28;20259;-49
2023/01/08 07:01:26;;;;;;;;;;;15.40;92.60;;;;;;5078725;28;20374;-52
2023/01/08 07:03:51;;;;;;;;;;;15.40;92.60;;;;;;5097165;28;19939;-48
2023/01/08 07:06:18;;;;;;;;;;;15.40;92.60;;;;;;5078435;28;20235;-50
2023/01/08 07:08:44;;;;;;;;;;;15.40;92.60;;;;;;5078407;28;19911;-48
2023/01/08 07:11:10;;;;;;;;;;;15.30;92.60;;;;;;5096439;28;19964;-48
2023/01/08 07:13:35;;;;;;;;;;;15.30;92.60;;;;;;5096552;28;19904;-48
2023/01/08 07:16:19;;;;;;;;;;;15.30;92.60;;;;;;5096514;28;19910;-49
2023/01/08 07:18:44;;;;;;;;;;;15.30;92.70;;;;;;5096880;28;19904;-49
2023/01/08 07:21:10;;;;;;;;;;;15.30;92.70;;;;;;5096580;28;19908;-51
2023/01/08 07:23:37;;;;;;;;;;;15.30;92.70;;;;;;5096532;28;19908;-48
2023/01/08 07:26:03;;;;;;;;;;;15.30;92.70;;;;;;5096156;28;20372;-50
2023/01/08 07:28:29;;;;;;;;;;;15.30;92.70;;;;;;5096360;28;19904;-53
2023/01/08 07:30:54;;;;;;;;;;;15.30;92.70;;;;;;5096022;28;20002;-52
2023/01/08 07:33:20;;;;;;;;;;;15.30;92.70;;;;;;5096201;28;19908;-54
2023/01/08 07:35:52;;;;;;;;;;;15.30;92.70;;;;;;5096110;28;20307;-50
2023/01/08 07:38:17;;;;;;;;;;;15.30;92.70;;;;;;5096183;28;19911;-54
2023/01/08 07:40:43;;;;;;;;;;;15.30;92.70;;;;;;5077771;28;20261;-52
2023/01/08 07:43:11;;;;;;;;;;;15.30;92.70;;;;;;5077929;28;19916;-51
2023/01/08 07:45:36;;;;;;;;;;;15.20;92.70;;;;;;5095798;28;19904;-50
2023/01/08 07:48:02;;;;;;;;;;;15.30;92.70;;;;;;5095759;28;19912;-53
2023/01/08 07:50:27;;;;;;;;;;;15.20;92.70;;;;;;5094815;28;19911;-51
2023/01/08 07:52:55;;;;;;;;;;;15.20;92.70;;;;;;5095478;28;20016;-52
2023/01/08 07:55:21;;;;;;;;;;;15.30;92.80;;;;;;5095755;28;19904;-50
2023/01/08 07:57:46;;;;;;;;;;;15.20;92.80;;;;;;5095726;28;19956;-49
2023/01/08 08:00:13;;;;;;;;;;;15.30;92.80;;;;;;5095389;28;19931;-50
2023/01/08 08:02:39;;;;;;;;;;;15.20;92.80;;;;;;5096047;28;19908;-51
2023/01/08 08:05:04;;;;;;;;;;;15.30;92.80;;;;;;5095357;28;19912;-52
2023/01/08 08:07:30;;;;;;;;;;;15.20;92.80;;;;;;5095218;28;19990;-49
2023/01/08 08:09:55;;;;;;;;;;;15.20;92.80;;;;;;5095611;28;19912;-51
2023/01/08 08:12:21;;;;;;;;;;;15.20;92.80;;;;;;5095502;28;19904;-52
2023/01/08 08:14:47;;;;;;;;;;;15.20;92.80;;;;;;5095484;28;19904;-47
2023/01/08 08:17:12;;;;;;;;;;;15.20;92.80;;;;;;5095052;28;19908;-52
2023/01/08 08:19:40;;;;;;;;;;;15.20;92.80;;;;;;5094954;28;19914;-52
2023/01/08 08:22:05;;;;;;;;;;;15.20;92.80;;;;;;5095307;28;19908;-52
2023/01/08 08:24:31;;;;;;;;;;;15.20;92.80;;;;;;5095187;28;19927;-49
2023/01/08 08:26:56;;;;;;;;;;;15.20;92.80;;;;;;5095183;28;19995;-49
2023/01/08 08:29:22;;;;;;;;;;;15.20;92.80;;;;;;5077085;28;20331;-49
2023/01/08 08:31:47;;;;;;;;;;;15.20;92.80;;;;;;5095096;28;19979;-49
2023/01/08 08:34:13;;;;;;;;;;;15.20;92.70;;;;;;5094775;28;20408;-50
2023/01/08 08:36:38;;;;;;;;;;;15.20;92.80;;;;;;5095057;28;19921;-52
2023/01/08 08:39:03;;;;;;;;;;;15.20;92.90;;;;;;5094826;28;19943;-51
2023/01/08 08:41:29;;;;;;;;;;;15.20;92.80;;;;;;5094788;28;20353;-51
2023/01/08 08:43:54;;;;;;;;;;;15.20;92.80;;;;;;5094779;28;20004;-53
2023/01/08 08:46:20;;;;;;;;;;;15.20;92.80;;;;;;5094848;28;19904;-52
2023/01/08 08:48:46;;;;;;;;;;;15.20;92.80;;;;;;5094349;28;20253;-49
2023/01/08 08:51:12;;;;;;;;;;;15.20;92.80;;;;;;5092687;28;19912;-48
2023/01/08 08:53:37;;;;;;;;;;;15.10;92.80;;;;;;5103056;28;19977;-50
2023/01/08 08:56:03;;;;;;;;;;;15.10;92.80;;;;;;5094167;28;20276;-50
2023/01/08 08:58:28;;;;;;;;;;;15.10;92.70;;;;;;5075890;28;19955;-53
2023/01/08 09:00:54;;;;;;;;;;;15.10;92.90;;;;;;5094094;28;19912;-51
2023/01/08 09:03:19;;;;;;;;;;;15.10;92.80;;;;;;5094494;28;19965;-50
2023/01/08 09:05:45;;;;;;;;;;;15.10;92.80;;;;;;5076193;28;19960;-48
2023/01/08 09:08:11;;;;;;;;;;;15.00;92.70;;;;;;5094030;28;19912;-50
2023/01/08 09:10:37;;;;;;;;;;;15.00;92.70;;;;;;5095702;28;20311;-49
2023/01/08 09:13:02;;;;;;;;;;;15.00;92.80;;;;;;5103742;28;19931;-51
2023/01/08 09:15:28;;;;;;;;;;;15.00;92.80;;;;;;5094230;28;19908;-51
2023/01/08 09:17:54;;;;;;;;;;;15.00;92.70;;;;;;5093897;28;19918;-50
2023/01/08 09:20:20;;;;;;;;;;;15.00;92.80;;;;;;5097040;28;20006;-50
2023/01/08 09:22:45;;;;;;;;;;;15.00;92.80;;;;;;5109069;28;20018;-50
2023/01/08 09:25:11;;;;;;;;;;;15.00;92.80;;;;;;5105373;28;19978;-52
2023/01/08 09:27:36;;;;;;;;;;;14.90;92.80;;;;;;5090654;28;19919;-54
2023/01/08 09:30:02;;;;;;;;;;;14.90;92.80;;;;;;5076151;28;19999;-48
2023/01/08 09:32:27;;;;;;;;;;;14.90;92.80;;;;;;5084637;28;19922;-52
2023/01/08 09:34:53;;;;;;;;;;;14.90;92.80;;;;;;5089704;28;19924;-52
2023/01/08 09:37:18;;;;;;;;;;;14.90;92.80;;;;;;5075954;28;19951;-52
2023/01/08 09:39:43;;;;;;;;;;;14.90;92.80;;;;;;5088745;28;20003;-52
2023/01/08 09:42:10;;;;;;;;;;;14.90;92.80;;;;;;5075345;28;19962;-51
2023/01/08 09:44:40;;;;;;;;;;;14.90;92.80;;;;;;5076978;28;20011;-50
2023/01/08 09:47:15;;;;;;;;;;;14.90;92.70;;;;;;5085293;28;19916;-50
2023/01/08 09:49:43;;;;;;;;;;;14.80;92.80;;;;;;5092081;28;20397;-48
2023/01/08 09:52:10;;;;;;;;;;;14.80;92.80;;;;;;5095367;28;19923;-53
2023/01/08 09:54:35;;;;;;;;;;;14.80;92.80;;;;;;5080763;28;19938;-54
2023/01/08 09:57:01;;;;;;;;;;;14.80;92.80;;;;;;5090786;28;20014;-52
2023/01/08 09:59:27;;;;;;;;;;;14.80;92.80;;;;;;5093576;28;19908;-50
2023/01/08 10:01:52;;;;;;;;;;;14.80;92.90;;;;;;5083073;28;20358;-49
2023/01/08 10:04:19;;;;;;;;;;;14.80;92.90;;;;;;5114189;28;19914;-50
2023/01/08 10:07:05;;;;;;;;;;;14.80;92.90;;;;;;5114159;28;19943;-48
2023/01/08 10:09:32;;;;;;;;;;;14.80;92.90;;;;;;5113810;28;19931;-51
2023/01/08 10:11:59;;;;;;;;;;;14.80;92.90;;;;;;5113834;28;19997;-51
2023/01/08 10:14:26;;;;;;;;;;;14.80;93.00;;;;;;5101048;28;19915;-48
2023/01/08 10:16:57;;;;;;;;;;;14.80;93.00;;;;;;5099637;28;19915;-54
2023/01/08 10:19:23;;;;;;;;;;;14.70;93.00;;;;;;5096150;28;19909;-53
2023/01/08 10:21:49;;;;;;;;;;;14.80;93.10;;;;;;5096391;28;20259;-49
2023/01/08 10:24:14;;;;;;;;;;;14.80;93.00;;;;;;5096005;28;20003;-50
2023/01/08 10:26:40;;;;;;;;;;;14.90;93.00;;;;;;5090909;28;20359;-53
2023/01/08 10:29:05;;;;;;;;;;;15.00;92.90;;;;;;5082706;28;19912;-53
2023/01/08 10:31:31;;;;;;;;;;;15.10;92.80;;;;;;5094303;28;20347;-52
2023/01/08 10:33:56;;;;;;;;;;;15.20;92.70;;;;;;5096093;28;19907;-55
2023/01/08 10:36:23;;;;;;;;;;;15.30;92.60;;;;;;5095516;28;19970;-53
2023/01/08 10:38:49;;;;;;;;;;;15.40;92.50;;;;;;5097662;28;19912;-52
2023/01/08 10:41:16;;;;;;;;;;;15.70;92.30;;;;;;5095531;28;20316;-51
2023/01/08 10:43:44;;;;;;;;;;;15.90;92.10;;;;;;5095709;28;19971;-55
2023/01/08 10:46:18;;;;;;;;;;;16.20;91.60;;;;;;5095615;28;19915;-52
2023/01/08 10:48:46;;;;;;;;;;;16.40;91.30;;;;;;5093862;28;19916;-49
2023/01/08 10:51:11;;;;;;;;;;;16.70;91.00;;;;;;5076002;28;19912;-52
2023/01/08 10:53:39;;;;;;;;;;;16.90;90.60;;;;;;5098621;28;20003;-54
2023/01/08 10:56:04;;;;;;;;;;;17.10;90.30;;;;;;5082622;28;19919;-51
2023/01/08 10:58:39;;;;;;;;;;;17.30;90.10;;;;;;5098828;28;20219;-52
2023/01/08 11:01:09;;;;;;;;;;;17.40;90.00;;;;;;5090916;28;20063;-54
2023/01/08 11:03:35;;;;;;;;;;;17.50;89.60;;;;;;5100239;28;19923;-51
2023/01/08 11:06:08;;;;;;;;;;;17.50;89.50;;;;;;5094444;28;21228;-53
2023/01/08 11:08:35;;;;;;;;;;;17.50;89.50;;;;;;5096210;28;19923;-51
2023/01/08 11:11:00;;;;;;;;;;;17.50;89.30;;;;;;5092252;28;20274;-53
2023/01/08 11:13:27;;;;;;;;;;;17.40;89.40;;;;;;5096383;28;19908;-49
2023/01/08 11:16:02;;;;;;;;;;;17.30;89.50;;;;;;5096863;28;19918;-50
2023/01/08 11:18:27;;;;;;;;;;;17.30;89.70;;;;;;5091218;28;19947;-52
2023/01/08 11:21:05;;;;;;;;;;;17.30;89.80;;;;;;5072867;28;19997;-52
2023/01/08 11:23:30;;;;;;;;;;;17.20;90.00;;;;;;5088903;28;19916;-53
2023/01/08 11:26:04;;;;;;;;;;;17.10;90.00;;;;;;5082112;28;19919;-52
2023/01/08 11:28:42;;;;;;;;;;;17.10;90.10;;;;;;5076846;28;19952;-53
2023/01/08 11:31:18;;;;;;;;;;;17.00;90.10;;;;;;5094285;28;19911;-51
2023/01/08 11:33:44;;;;;;;;;;;17.00;90.20;;;;;;5075741;28;19913;-50
2023/01/08 11:36:09;;;;;;;;;;;17.00;90.20;;;;;;5086593;28;19920;-49
2023/01/08 11:38:35;;;;;;;;;;;17.00;90.20;;;;;;5085669;28;19912;-52
2023/01/08 11:41:08;;;;;;;;;;;17.10;90.20;;;;;;5090583;28;19965;-50
2023/01/08 11:43:55;;;;;;;;;;;17.20;90.00;;;;;;5094510;28;20359;-52
2023/01/08 11:46:53;;;;;;;;;;;17.50;89.60;;;;;;5093869;28;19944;-52
2023/01/08 11:49:18;;;;;;;;;;;17.70;88.80;;;;;;5052033;28;20015;-49
2023/01/08 11:52:06;;;;;;;;;;;17.90;88.10;;;;;;5088300;28;19912;-51
2023/01/08 11:54:32;;;;;;;;;;;17.90;87.80;;;;;;5093749;28;19919;-51
2023/01/08 11:57:16;;;;;;;;;;;17.90;88.00;;;;;;5094156;28;19909;-51
2023/01/08 11:59:44;;;;;;;;;;;17.80;88.00;;;;;;5099188;28;20048;-50
2023/01/08 12:02:12;;;;;;;;;;;17.80;88.10;;;;;;5086550;28;19916;-53
2023/01/08 12:04:56;;;;;;;;;;;17.70;88.20;;;;;;5094617;28;19903;-53
2023/01/08 12:07:24;;;;;;;;;;;17.70;88.40;;;;;;5092000;28;19913;-50
2023/01/08 12:09:56;;;;;;;;;;;17.60;88.60;;;;;;5091714;28;19920;-49
2023/01/08 12:12:36;;;;;;;;;;;17.50;88.80;;;;;;5106133;28;19996;-50
2023/01/08 12:15:12;;;;;;;;;;;17.50;89.00;;;;;;5104435;28;20318;-52
2023/01/08 12:17:54;;;;;;;;;;;17.40;89.20;;;;;;5090474;28;19912;-52
2023/01/08 12:20:36;;;;;;;;;;;17.30;89.30;;;;;;5105525;28;19956;-52
2023/01/08 12:23:23;;;;;;;;;;;17.30;89.40;;;;;;5083264;28;19916;-51
2023/01/08 12:26:04;;;;;;;;;;;17.30;89.60;;;;;;5092178;28;19908;-53
2023/01/08 12:28:48;;;;;;;;;;;17.30;89.70;;;;;;5075643;28;19908;-50
2023/01/08 12:31:13;;;;;;;;;;;17.30;89.60;;;;;;5093420;28;19916;-53
2023/01/08 12:33:46;;;;;;;;;;;17.50;89.40;;;;;;5075524;28;20303;-51
2023/01/08 12:36:15;;;;;;;;;;;17.60;88.90;;;;;;5072063;28;19928;-51
2023/01/08 12:38:43;;;;;;;;;;;17.80;88.40;;;;;;5099559;28;19995;-51
2023/01/08 12:41:15;;;;;;;;;;;17.90;88.00;;;;;;5092686;28;19912;-51
2023/01/08 12:43:58;;;;;;;;;;;18.00;87.70;;;;;;5088503;28;20375;-54
2023/01/08 12:46:25;;;;;;;;;;;17.90;87.70;;;;;;5085667;28;19923;-53
2023/01/08 12:48:52;;;;;;;;;;;17.90;87.80;;;;;;5087440;28;20363;-51
2023/01/08 12:51:24;;;;;;;;;;;17.90;87.90;;;;;;5093442;28;20376;-52
2023/01/08 12:53:49;;;;;;;;;;;17.80;88.00;;;;;;5068961;28;19973;-51
2023/01/08 12:56:19;;;;;;;;;;;17.70;88.20;;;;;;5082963;28;20329;-51
2023/01/08 12:58:44;;;;;;;;;;;17.70;88.40;;;;;;5093429;28;19920;-53
2023/01/08 13:01:15;;;;;;;;;;;17.60;88.60;;;;;;5076043;28;20316;-52
2023/01/08 13:03:41;;;;;;;;;;;17.50;88.70;;;;;;5085083;28;20007;-51
2023/01/08 13:06:08;;;;;;;;;;;17.40;88.80;;;;;;5092892;28;20003;-52
2023/01/08 13:08:35;;;;;;;;;;;17.40;89.00;;;;;;5092832;28;19916;-50
2023/01/08 13:11:01;;;;;;;;;;;17.30;89.20;;;;;;5090415;28;19912;-53
2023/01/08 13:13:28;;;;;;;;;;;17.30;89.30;;;;;;5082496;28;19982;-54
2023/01/08 13:16:18;;;;;;;;;;;17.30;89.40;;;;;;5087975;28;19916;-54
2023/01/08 13:19:00;;;;;;;;;;;17.30;89.40;;;;;;5089787;28;19916;-53
2023/01/08 13:21:30;;;;;;;;;;;17.40;89.30;;;;;;5079137;28;19923;-50
2023/01/08 13:24:28;;;;;;;;;;;17.50;89.10;;;;;;5092335;28;19920;-52
2023/01/08 13:26:54;;;;;;;;;;;17.60;88.70;;;;;;5061865;28;20386;-50
2023/01/08 13:29:24;;;;;;;;;;;17.80;88.30;;;;;;5088122;28;19912;-53
2023/01/08 13:31:50;;;;;;;;;;;17.80;88.00;;;;;;5093031;28;20232;-54
2023/01/08 13:34:20;;;;;;;;;;;17.80;88.00;;;;;;5085281;28;19919;-53
2023/01/08 13:36:56;;;;;;;;;;;17.80;88.00;;;;;;5091568;28;19927;-52
2023/01/08 13:39:22;;;;;;;;;;;17.70;88.10;;;;;;5092503;28;19915;-48
2023/01/08 13:42:02;;;;;;;;;;;17.70;88.20;;;;;;5092156;28;20294;-54
2023/01/08 13:44:28;;;;;;;;;;;17.70;88.30;;;;;;5090367;28;19990;-53
2023/01/08 13:46:58;;;;;;;;;;;17.60;88.40;;;;;;5087011;28;19923;-52
2023/01/08 13:49:27;;;;;;;;;;;17.50;88.60;;;;;;5096767;28;19916;-52
2023/01/08 13:51:52;;;;;;;;;;;17.50;88.70;;;;;;5095861;28;19999;-50
2023/01/08 13:54:20;;;;;;;;;;;17.40;88.90;;;;;;5096699;28;20050;-52
2023/01/08 13:56:49;;;;;;;;;;;17.40;89.00;;;;;;5096652;28;19912;-50
2023/01/08 13:59:19;;;;;;;;;;;17.40;89.10;;;;;;5095298;28;19919;-53
2023/01/08 14:01:55;;;;;;;;;;;17.40;89.10;;;;;;5096464;28;19923;-52
2023/01/08 14:04:23;;;;;;;;;;;17.40;89.00;;;;;;5095385;28;19986;-58
2023/01/08 14:06:49;;;;;;;;;;;17.50;88.80;;;;;;5107715;28;20385;-50
2023/01/08 14:09:22;;;;;;;;;;;17.70;88.40;;;;;;5100719;28;19912;-53
2023/01/08 14:11:49;;;;;;;;;;;17.90;87.80;;;;;;5094592;28;20358;-50
2023/01/08 14:14:16;;;;;;;;;;;18.00;87.40;;;;;;5112548;28;19908;-51
2023/01/08 14:16:42;;;;;;;;;;;18.10;87.10;;;;;;5087887;28;19918;-49
2023/01/08 14:19:13;;;;;;;;;;;18.10;87.10;;;;;;5117999;28;19951;-53